This is the latest recevied weather packets stored in our database for station/object KC4MCQ-10. If no packets are shown the sender has not sent any weather packets the latest 10 day(s).
| Time | Temp. | Humidity | Pressure | Rain* | Wind** | Luminosity | Snow |
|---|---|---|---|---|---|---|---|
| 1787426671 | 32.22° C | 69% | 1015.3 hPa | 17.78 mm | 3.58 m/s, 313° | - | - |
| 1787426069 | 32.78° C | 67% | 1015.4 hPa | 17.78 mm | 0.89 m/s, 295° | - | - |
| 1787425468 | 32.22° C | 67% | 1015.4 hPa | 17.78 mm | 3.58 m/s, 285° | - | - |
| 1787424856 | 32.78° C | 68% | 1015.6 hPa | 17.78 mm | 2.24 m/s, 328° | - | - |
| 1787424255 | 32.78° C | 67% | 1015.6 hPa | 17.78 mm | 4.47 m/s, 302° | - | - |
| 1787423655 | 32.78° C | 68% | 1015.5 hPa | 17.78 mm | 3.58 m/s, 273° | - | - |
| 1787423053 | 32.78° C | 66% | 1015.7 hPa | 17.78 mm | 3.13 m/s, 296° | - | - |
| 1787422451 | 32.78° C | 67% | 1015.7 hPa | 17.78 mm | 3.13 m/s, 275° | - | - |
| 1787421849 | 32.78° C | 65% | 1015.9 hPa | 17.78 mm | 1.34 m/s, 307° | - | - |
| 1787421249 | 32.22° C | 64% | 1016.1 hPa | 17.78 mm | 1.79 m/s, 308° | - | - |
| 1787420648 | 31.67° C | 66% | 1016.2 hPa | 17.78 mm | 1.34 m/s, 284° | - | - |
| 1787420048 | 31.11° C | 69% | 1016.2 hPa | 17.78 mm | 4.02 m/s, 315° | - | - |
| 1787419445 | 30.56° C | 69% | 1016.3 hPa | 17.78 mm | 4.02 m/s, 322° | - | - |
| 1787418843 | 30° C | 72% | 1016.3 hPa | 17.78 mm | 3.13 m/s, 296° | - | - |
| 1787418242 | 31.11° C | 72% | 1016.6 hPa | 17.78 mm | 1.34 m/s, 266° | - | - |
| 1787417635 | 32.22° C | 68% | 1016.6 hPa | 17.78 mm | 1.79 m/s, 219° | - | - |
| 1787417034 | 32.78° C | 67% | 1016.7 hPa | 17.78 mm | 0.45 m/s, 267° | - | - |
| 1787416431 | 31.67° C | 70% | 1017 hPa | 17.78 mm | 0.45 m/s, 244° | - | - |
| 1787415826 | 31.67° C | 70% | 1017.3 hPa | 17.78 mm | 0.89 m/s, 249° | - | - |
| 1787414021 | 31.67° C | 70% | 1017.5 hPa | 17.78 mm | 0.45 m/s, 224° | - | - |
| 1787413420 | 31.67° C | 73% | 1017.7 hPa | 17.78 mm | 0.89 m/s, 269° | - | - |
| 1787412811 | 31.67° C | 74% | 1017.7 hPa | 17.78 mm | 1.34 m/s, 215° | - | - |
| 1787412211 | 31.11° C | 76% | 1017.8 hPa | 17.78 mm | 1.34 m/s, 245° | - | - |
| 1787411610 | 30.56° C | 77% | 1017.9 hPa | 17.78 mm | 0.45 m/s, 215° | - | - |
| 1787410986 | 30° C | 78% | 1017.7 hPa | 17.78 mm | 0.89 m/s, 258° | - | - |
* Rain latest 24 hours (hover to see other rain measurements)
** Current wind speed in m/s (hover to see current wind gust speed)